sensor_id;sensor_type;location;lat;lon;timestamp;P1;durP1;ratioP1;P2;durP2;ratioP2
19193;SDS011;9729;52.296;13.260;2023-05-13T00:00:26;10.23;;;6.00;;
19193;SDS011;9729;52.296;13.260;2023-05-13T00:02:53;14.13;;;5.97;;
19193;SDS011;9729;52.296;13.260;2023-05-13T00:05:19;9.63;;;5.40;;
19193;SDS011;9729;52.296;13.260;2023-05-13T00:07:46;15.03;;;6.27;;
19193;SDS011;9729;52.296;13.260;2023-05-13T00:10:12;8.63;;;5.67;;
19193;SDS011;9729;52.296;13.260;2023-05-13T00:12:40;15.90;;;6.03;;
19193;SDS011;9729;52.296;13.260;2023-05-13T00:15:07;10.30;;;6.00;;
19193;SDS011;9729;52.296;13.260;2023-05-13T00:17:35;10.37;;;6.33;;
19193;SDS011;9729;52.296;13.260;2023-05-13T00:20:01;11.80;;;5.67;;
19193;SDS011;9729;52.296;13.260;2023-05-13T00:22:27;11.77;;;5.67;;
19193;SDS011;9729;52.296;13.260;2023-05-13T00:24:54;8.83;;;5.77;;
19193;SDS011;9729;52.296;13.260;2023-05-13T00:27:20;8.53;;;6.10;;
19193;SDS011;9729;52.296;13.260;2023-05-13T00:29:46;7.13;;;5.80;;
19193;SDS011;9729;52.296;13.260;2023-05-13T00:32:13;11.03;;;6.10;;
19193;SDS011;9729;52.296;13.260;2023-05-13T00:34:40;16.63;;;5.73;;
19193;SDS011;9729;52.296;13.260;2023-05-13T00:37:07;10.90;;;6.23;;
19193;SDS011;9729;52.296;13.260;2023-05-13T00:39:35;12.10;;;6.20;;
19193;SDS011;9729;52.296;13.260;2023-05-13T00:42:01;9.60;;;6.10;;
19193;SDS011;9729;52.296;13.260;2023-05-13T00:44:28;9.27;;;5.63;;
19193;SDS011;9729;52.296;13.260;2023-05-13T00:46:55;14.20;;;6.40;;
19193;SDS011;9729;52.296;13.260;2023-05-13T00:49:21;9.47;;;5.47;;
19193;SDS011;9729;52.296;13.260;2023-05-13T00:51:49;11.00;;;6.23;;
19193;SDS011;9729;52.296;13.260;2023-05-13T00:54:19;14.00;;;6.00;;
19193;SDS011;9729;52.296;13.260;2023-05-13T00:56:45;11.67;;;6.43;;
19193;SDS011;9729;52.296;13.260;2023-05-13T00:59:11;12.20;;;5.97;;
19193;SDS011;9729;52.296;13.260;2023-05-13T01:01:42;12.37;;;5.97;;
19193;SDS011;9729;52.296;13.260;2023-05-13T01:04:13;7.20;;;5.80;;
19193;SDS011;9729;52.296;13.260;2023-05-13T01:06:44;8.17;;;5.30;;
19193;SDS011;9729;52.296;13.260;2023-05-13T01:09:20;14.70;;;6.70;;
19193;SDS011;9729;52.296;13.260;2023-05-13T01:11:52;11.57;;;5.93;;
19193;SDS011;9729;52.296;13.260;2023-05-13T01:14:21;9.17;;;6.40;;
19193;SDS011;9729;52.296;13.260;2023-05-13T01:16:51;13.00;;;6.17;;
19193;SDS011;9729;52.296;13.260;2023-05-13T01:19:27;9.43;;;6.07;;
19193;SDS011;9729;52.296;13.260;2023-05-13T01:22:03;9.17;;;5.97;;
19193;SDS011;9729;52.296;13.260;2023-05-13T01:24:30;8.97;;;6.40;;
19193;SDS011;9729;52.296;13.260;2023-05-13T01:26:57;19.40;;;7.30;;
19193;SDS011;9729;52.296;13.260;2023-05-13T01:29:23;14.30;;;6.10;;
19193;SDS011;9729;52.296;13.260;2023-05-13T01:31:49;8.70;;;5.80;;
19193;SDS011;9729;52.296;13.260;2023-05-13T01:34:17;16.20;;;5.73;;
19193;SDS011;9729;52.296;13.260;2023-05-13T01:36:43;6.30;;;5.70;;
19193;SDS011;9729;52.296;13.260;2023-05-13T01:39:11;7.87;;;6.07;;
19193;SDS011;9729;52.296;13.260;2023-05-13T01:41:38;10.60;;;5.53;;
19193;SDS011;9729;52.296;13.260;2023-05-13T01:44:04;9.37;;;6.17;;
19193;SDS011;9729;52.296;13.260;2023-05-13T01:46:31;9.57;;;6.07;;
19193;SDS011;9729;52.296;13.260;2023-05-13T01:48:57;9.27;;;6.07;;
19193;SDS011;9729;52.296;13.260;2023-05-13T01:51:23;8.43;;;5.83;;
19193;SDS011;9729;52.296;13.260;2023-05-13T01:53:50;9.60;;;5.87;;
19193;SDS011;9729;52.296;13.260;2023-05-13T01:56:17;7.90;;;6.20;;
19193;SDS011;9729;52.296;13.260;2023-05-13T01:58:45;14.43;;;6.50;;
19193;SDS011;9729;52.296;13.260;2023-05-13T02:01:11;14.53;;;6.33;;
19193;SDS011;9729;52.296;13.260;2023-05-13T02:03:38;13.87;;;6.17;;
19193;SDS011;9729;52.296;13.260;2023-05-13T02:06:04;10.63;;;6.47;;
19193;SDS011;9729;52.296;13.260;2023-05-13T02:08:31;9.83;;;6.40;;
19193;SDS011;9729;52.296;13.260;2023-05-13T02:10:57;12.37;;;5.97;;
19193;SDS011;9729;52.296;13.260;2023-05-13T02:13:25;8.17;;;6.17;;
19193;SDS011;9729;52.296;13.260;2023-05-13T02:15:52;8.40;;;6.07;;
19193;SDS011;9729;52.296;13.260;2023-05-13T02:18:18;10.50;;;6.73;;
19193;SDS011;9729;52.296;13.260;2023-05-13T02:20:45;10.70;;;6.57;;
19193;SDS011;9729;52.296;13.260;2023-05-13T02:23:11;10.90;;;6.13;;
19193;SDS011;9729;52.296;13.260;2023-05-13T02:25:39;12.63;;;6.20;;
19193;SDS011;9729;52.296;13.260;2023-05-13T02:28:05;10.03;;;6.50;;
19193;SDS011;9729;52.296;13.260;2023-05-13T02:30:33;15.00;;;6.23;;
19193;SDS011;9729;52.296;13.260;2023-05-13T02:32:59;10.60;;;6.53;;
19193;SDS011;9729;52.296;13.260;2023-05-13T02:35:26;13.80;;;6.97;;
19193;SDS011;9729;52.296;13.260;2023-05-13T02:37:53;10.97;;;5.77;;
19193;SDS011;9729;52.296;13.260;2023-05-13T02:40:20;11.27;;;6.47;;
19193;SDS011;9729;52.296;13.260;2023-05-13T02:42:46;9.43;;;6.40;;
19193;SDS011;9729;52.296;13.260;2023-05-13T02:45:13;14.67;;;6.60;;
19193;SDS011;9729;52.296;13.260;2023-05-13T02:47:40;11.40;;;6.30;;
19193;SDS011;9729;52.296;13.260;2023-05-13T02:50:07;10.10;;;6.33;;
19193;SDS011;9729;52.296;13.260;2023-05-13T02:52:36;11.17;;;6.40;;
19193;SDS011;9729;52.296;13.260;2023-05-13T02:55:03;14.63;;;6.87;;
19193;SDS011;9729;52.296;13.260;2023-05-13T02:57:30;11.83;;;6.80;;
19193;SDS011;9729;52.296;13.260;2023-05-13T02:59:57;11.00;;;7.37;;
19193;SDS011;9729;52.296;13.260;2023-05-13T03:02:23;7.80;;;6.50;;
19193;SDS011;9729;52.296;13.260;2023-05-13T03:04:51;17.27;;;6.97;;
19193;SDS011;9729;52.296;13.260;2023-05-13T03:07:18;14.10;;;6.73;;
19193;SDS011;9729;52.296;13.260;2023-05-13T03:09:45;12.13;;;8.17;;
19193;SDS011;9729;52.296;13.260;2023-05-13T03:12:11;12.20;;;6.97;;
19193;SDS011;9729;52.296;13.260;2023-05-13T03:14:38;10.53;;;7.27;;
19193;SDS011;9729;52.296;13.260;2023-05-13T03:17:04;10.07;;;6.70;;
19193;SDS011;9729;52.296;13.260;2023-05-13T03:19:31;15.33;;;6.70;;
19193;SDS011;9729;52.296;13.260;2023-05-13T03:21:59;14.47;;;7.67;;
19193;SDS011;9729;52.296;13.260;2023-05-13T03:24:25;12.30;;;7.20;;
19193;SDS011;9729;52.296;13.260;2023-05-13T03:26:52;15.07;;;7.00;;
19193;SDS011;9729;52.296;13.260;2023-05-13T03:29:18;10.37;;;6.50;;
19193;SDS011;9729;52.296;13.260;2023-05-13T03:31:45;14.67;;;7.20;;
19193;SDS011;9729;52.296;13.260;2023-05-13T03:34:11;10.57;;;6.83;;
19193;SDS011;9729;52.296;13.260;2023-05-13T03:36:37;12.70;;;7.07;;
19193;SDS011;9729;52.296;13.260;2023-05-13T03:39:05;13.83;;;7.10;;
19193;SDS011;9729;52.296;13.260;2023-05-13T03:41:31;16.67;;;7.23;;
19193;SDS011;9729;52.296;13.260;2023-05-13T03:43:58;11.33;;;7.17;;
19193;SDS011;9729;52.296;13.260;2023-05-13T03:46:24;9.13;;;7.03;;
19193;SDS011;9729;52.296;13.260;2023-05-13T03:48:51;13.43;;;6.33;;
19193;SDS011;9729;52.296;13.260;2023-05-13T03:51:17;8.90;;;6.77;;
19193;SDS011;9729;52.296;13.260;2023-05-13T03:53:44;16.63;;;7.10;;
19193;SDS011;9729;52.296;13.260;2023-05-13T03:56:12;12.10;;;7.07;;
19193;SDS011;9729;52.296;13.260;2023-05-13T03:58:38;19.97;;;8.47;;
19193;SDS011;9729;52.296;13.260;2023-05-13T04:01:05;12.97;;;7.30;;
19193;SDS011;9729;52.296;13.260;2023-05-13T04:03:32;9.20;;;7.20;;
19193;SDS011;9729;52.296;13.260;2023-05-13T04:05:58;8.03;;;6.80;;
19193;SDS011;9729;52.296;13.260;2023-05-13T04:08:25;13.40;;;7.63;;
19193;SDS011;9729;52.296;13.260;2023-05-13T04:10:52;10.50;;;7.00;;
19193;SDS011;9729;52.296;13.260;2023-05-13T04:13:21;12.63;;;6.90;;
19193;SDS011;9729;52.296;13.260;2023-05-13T04:15:48;7.90;;;6.67;;
19193;SDS011;9729;52.296;13.260;2023-05-13T04:18:14;10.23;;;7.57;;
19193;SDS011;9729;52.296;13.260;2023-05-13T04:20:40;11.57;;;7.73;;
19193;SDS011;9729;52.296;13.260;2023-05-13T04:23:07;13.37;;;6.33;;
19193;SDS011;9729;52.296;13.260;2023-05-13T04:25:34;9.93;;;6.97;;
19193;SDS011;9729;52.296;13.260;2023-05-13T04:28:01;9.17;;;6.53;;
19193;SDS011;9729;52.296;13.260;2023-05-13T04:30:28;8.03;;;7.00;;
19193;SDS011;9729;52.296;13.260;2023-05-13T04:32:55;13.07;;;7.17;;
19193;SDS011;9729;52.296;13.260;2023-05-13T04:35:21;11.93;;;7.00;;
19193;SDS011;9729;52.296;13.260;2023-05-13T04:37:48;17.40;;;7.07;;
19193;SDS011;9729;52.296;13.260;2023-05-13T04:40:15;8.60;;;6.47;;
19193;SDS011;9729;52.296;13.260;2023-05-13T04:42:42;16.53;;;6.60;;
19193;SDS011;9729;52.296;13.260;2023-05-13T04:45:08;11.30;;;7.03;;
19193;SDS011;9729;52.296;13.260;2023-05-13T04:47:36;10.93;;;6.67;;
19193;SDS011;9729;52.296;13.260;2023-05-13T04:50:03;13.73;;;6.90;;
19193;SDS011;9729;52.296;13.260;2023-05-13T04:52:30;11.33;;;6.80;;
19193;SDS011;9729;52.296;13.260;2023-05-13T04:54:56;22.33;;;6.90;;
19193;SDS011;9729;52.296;13.260;2023-05-13T04:57:22;7.83;;;6.37;;
19193;SDS011;9729;52.296;13.260;2023-05-13T04:59:49;10.57;;;6.33;;
19193;SDS011;9729;52.296;13.260;2023-05-13T05:02:15;10.03;;;5.93;;
19193;SDS011;9729;52.296;13.260;2023-05-13T05:04:43;12.13;;;7.03;;
19193;SDS011;9729;52.296;13.260;2023-05-13T05:07:09;8.80;;;6.43;;
19193;SDS011;9729;52.296;13.260;2023-05-13T05:09:36;11.83;;;6.20;;
19193;SDS011;9729;52.296;13.260;2023-05-13T05:12:02;9.13;;;6.63;;
19193;SDS011;9729;52.296;13.260;2023-05-13T05:14:29;13.00;;;5.93;;
19193;SDS011;9729;52.296;13.260;2023-05-13T05:16:55;9.50;;;6.27;;
19193;SDS011;9729;52.296;13.260;2023-05-13T05:19:22;7.47;;;5.83;;
19193;SDS011;9729;52.296;13.260;2023-05-13T05:21:50;15.23;;;6.43;;
19193;SDS011;9729;52.296;13.260;2023-05-13T05:24:16;10.90;;;5.27;;
19193;SDS011;9729;52.296;13.260;2023-05-13T05:26:43;13.60;;;5.97;;
19193;SDS011;9729;52.296;13.260;2023-05-13T05:29:09;10.37;;;5.80;;
19193;SDS011;9729;52.296;13.260;2023-05-13T05:31:35;11.40;;;5.80;;
19193;SDS011;9729;52.296;13.260;2023-05-13T05:34:02;10.10;;;5.90;;
19193;SDS011;9729;52.296;13.260;2023-05-13T05:36:28;12.23;;;5.43;;
19193;SDS011;9729;52.296;13.260;2023-05-13T05:38:56;7.90;;;5.60;;
19193;SDS011;9729;52.296;13.260;2023-05-13T05:41:22;8.63;;;5.70;;
19193;SDS011;9729;52.296;13.260;2023-05-13T05:43:49;10.70;;;5.93;;
19193;SDS011;9729;52.296;13.260;2023-05-13T05:46:15;15.23;;;5.83;;
19193;SDS011;9729;52.296;13.260;2023-05-13T05:48:42;10.43;;;5.93;;
19193;SDS011;9729;52.296;13.260;2023-05-13T05:51:08;11.43;;;5.93;;
19193;SDS011;9729;52.296;13.260;2023-05-13T05:53:34;8.77;;;6.00;;
19193;SDS011;9729;52.296;13.260;2023-05-13T05:56:06;14.50;;;5.80;;
19193;SDS011;9729;52.296;13.260;2023-05-13T05:58:32;13.67;;;5.80;;
19193;SDS011;9729;52.296;13.260;2023-05-13T06:00:59;9.30;;;5.60;;
19193;SDS011;9729;52.296;13.260;2023-05-13T06:03:25;10.30;;;6.10;;
19193;SDS011;9729;52.296;13.260;2023-05-13T06:05:52;14.10;;;5.47;;
19193;SDS011;9729;52.296;13.260;2023-05-13T06:08:18;8.97;;;5.33;;
19193;SDS011;9729;52.296;13.260;2023-05-13T06:10:44;10.10;;;5.17;;
19193;SDS011;9729;52.296;13.260;2023-05-13T06:13:12;12.13;;;5.17;;
19193;SDS011;9729;52.296;13.260;2023-05-13T06:15:39;15.63;;;6.20;;
19193;SDS011;9729;52.296;13.260;2023-05-13T06:18:05;15.93;;;5.27;;
19193;SDS011;9729;52.296;13.260;2023-05-13T06:20:31;15.60;;;5.03;;
19193;SDS011;9729;52.296;13.260;2023-05-13T06:22:57;9.50;;;4.80;;
19193;SDS011;9729;52.296;13.260;2023-05-13T06:25:24;9.40;;;5.13;;
19193;SDS011;9729;52.296;13.260;2023-05-13T06:27:50;8.50;;;4.57;;
19193;SDS011;9729;52.296;13.260;2023-05-13T06:30:18;10.37;;;5.57;;
19193;SDS011;9729;52.296;13.260;2023-05-13T06:32:45;7.23;;;5.07;;
19193;SDS011;9729;52.296;13.260;2023-05-13T06:35:11;8.07;;;5.17;;
19193;SDS011;9729;52.296;13.260;2023-05-13T06:37:38;9.00;;;4.87;;
19193;SDS011;9729;52.296;13.260;2023-05-13T06:40:04;13.07;;;4.90;;
19193;SDS011;9729;52.296;13.260;2023-05-13T06:42:32;7.00;;;4.90;;
19193;SDS011;9729;52.296;13.260;2023-05-13T06:45:03;7.90;;;5.33;;
19193;SDS011;9729;52.296;13.260;2023-05-13T06:47:32;5.47;;;4.13;;
19193;SDS011;9729;52.296;13.260;2023-05-13T06:49:59;8.23;;;4.30;;
19193;SDS011;9729;52.296;13.260;2023-05-13T06:52:25;12.93;;;4.53;;
19193;SDS011;9729;52.296;13.260;2023-05-13T06:54:52;7.33;;;4.37;;
19193;SDS011;9729;52.296;13.260;2023-05-13T06:57:18;6.43;;;4.33;;
19193;SDS011;9729;52.296;13.260;2023-05-13T06:59:44;7.93;;;4.43;;
19193;SDS011;9729;52.296;13.260;2023-05-13T07:02:11;7.17;;;4.13;;
19193;SDS011;9729;52.296;13.260;2023-05-13T07:04:38;9.23;;;4.00;;
19193;SDS011;9729;52.296;13.260;2023-05-13T07:07:05;7.03;;;3.90;;
19193;SDS011;9729;52.296;13.260;2023-05-13T07:09:31;8.67;;;4.30;;
19193;SDS011;9729;52.296;13.260;2023-05-13T07:11:58;5.10;;;4.10;;
19193;SDS011;9729;52.296;13.260;2023-05-13T07:14:24;13.77;;;4.30;;
19193;SDS011;9729;52.296;13.260;2023-05-13T07:16:51;8.63;;;3.83;;
19193;SDS011;9729;52.296;13.260;2023-05-13T07:19:17;8.37;;;4.47;;
19193;SDS011;9729;52.296;13.260;2023-05-13T07:21:45;8.30;;;4.43;;
19193;SDS011;9729;52.296;13.260;2023-05-13T07:24:11;7.13;;;3.93;;
19193;SDS011;9729;52.296;13.260;2023-05-13T07:26:38;8.17;;;3.80;;
19193;SDS011;9729;52.296;13.260;2023-05-13T07:29:04;5.20;;;3.87;;
19193;SDS011;9729;52.296;13.260;2023-05-13T07:31:31;5.63;;;4.10;;
19193;SDS011;9729;52.296;13.260;2023-05-13T07:33:58;11.37;;;3.70;;
19193;SDS011;9729;52.296;13.260;2023-05-13T07:36:24;4.93;;;3.70;;
19193;SDS011;9729;52.296;13.260;2023-05-13T07:38:53;9.43;;;3.90;;
19193;SDS011;9729;52.296;13.260;2023-05-13T07:41:19;4.40;;;3.57;;
19193;SDS011;9729;52.296;13.260;2023-05-13T07:43:46;13.30;;;4.60;;
19193;SDS011;9729;52.296;13.260;2023-05-13T07:46:12;9.00;;;3.90;;
19193;SDS011;9729;52.296;13.260;2023-05-13T07:48:39;9.20;;;3.53;;
19193;SDS011;9729;52.296;13.260;2023-05-13T07:51:05;5.70;;;3.57;;
19193;SDS011;9729;52.296;13.260;2023-05-13T07:53:31;3.93;;;3.53;;
19193;SDS011;9729;52.296;13.260;2023-05-13T07:56:00;5.33;;;3.93;;
19193;SDS011;9729;52.296;13.260;2023-05-13T07:58:27;8.40;;;3.60;;
19193;SDS011;9729;52.296;13.260;2023-05-13T08:00:53;6.73;;;3.60;;
19193;SDS011;9729;52.296;13.260;2023-05-13T08:03:19;5.70;;;3.47;;
19193;SDS011;9729;52.296;13.260;2023-05-13T08:05:46;7.73;;;3.53;;
19193;SDS011;9729;52.296;13.260;2023-05-13T08:08:13;7.23;;;3.57;;
19193;SDS011;9729;52.296;13.260;2023-05-13T08:10:39;5.63;;;3.47;;
19193;SDS011;9729;52.296;13.260;2023-05-13T08:13:07;7.90;;;3.70;;
19193;SDS011;9729;52.296;13.260;2023-05-13T08:15:33;8.30;;;3.60;;
19193;SDS011;9729;52.296;13.260;2023-05-13T08:18:01;9.90;;;3.83;;
19193;SDS011;9729;52.296;13.260;2023-05-13T08:20:27;9.10;;;3.40;;
19193;SDS011;9729;52.296;13.260;2023-05-13T08:22:54;14.90;;;4.10;;
19193;SDS011;9729;52.296;13.260;2023-05-13T08:25:22;7.20;;;3.53;;
19193;SDS011;9729;52.296;13.260;2023-05-13T08:27:48;11.97;;;4.03;;
19193;SDS011;9729;52.296;13.260;2023-05-13T08:30:16;4.37;;;3.77;;
19193;SDS011;9729;52.296;13.260;2023-05-13T08:32:43;7.77;;;3.60;;
19193;SDS011;9729;52.296;13.260;2023-05-13T08:35:09;4.43;;;3.40;;
19193;SDS011;9729;52.296;13.260;2023-05-13T08:37:36;12.27;;;3.80;;
19193;SDS011;9729;52.296;13.260;2023-05-13T08:40:02;9.33;;;3.27;;
19193;SDS011;9729;52.296;13.260;2023-05-13T08:42:30;10.53;;;3.97;;
19193;SDS011;9729;52.296;13.260;2023-05-13T08:44:58;7.27;;;3.53;;
19193;SDS011;9729;52.296;13.260;2023-05-13T08:47:29;7.40;;;3.70;;
19193;SDS011;9729;52.296;13.260;2023-05-13T08:49:57;7.97;;;4.10;;
19193;SDS011;9729;52.296;13.260;2023-05-13T08:52:24;5.90;;;3.97;;
19193;SDS011;9729;52.296;13.260;2023-05-13T08:54:50;8.23;;;4.10;;
19193;SDS011;9729;52.296;13.260;2023-05-13T08:57:17;13.27;;;4.10;;
19193;SDS011;9729;52.296;13.260;2023-05-13T08:59:43;9.50;;;3.50;;
19193;SDS011;9729;52.296;13.260;2023-05-13T09:02:10;11.20;;;3.77;;
19193;SDS011;9729;52.296;13.260;2023-05-13T09:04:38;5.83;;;3.70;;
19193;SDS011;9729;52.296;13.260;2023-05-13T09:07:06;8.23;;;3.73;;
19193;SDS011;9729;52.296;13.260;2023-05-13T09:09:32;11.33;;;3.73;;
19193;SDS011;9729;52.296;13.260;2023-05-13T09:11:59;7.93;;;3.60;;
19193;SDS011;9729;52.296;13.260;2023-05-13T09:14:26;7.38;;;3.88;;
19193;SDS011;9729;52.296;13.260;2023-05-13T09:16:55;10.07;;;4.37;;
19193;SDS011;9729;52.296;13.260;2023-05-13T09:19:22;4.28;;;3.80;;
19193;SDS011;9729;52.296;13.260;2023-05-13T09:21:50;7.43;;;3.87;;
19193;SDS011;9729;52.296;13.260;2023-05-13T09:24:17;9.07;;;4.00;;
19193;SDS011;9729;52.296;13.260;2023-05-13T09:26:45;8.50;;;4.20;;
19193;SDS011;9729;52.296;13.260;2023-05-13T09:29:13;7.37;;;3.43;;
19193;SDS011;9729;52.296;13.260;2023-05-13T09:31:40;7.47;;;4.20;;
19193;SDS011;9729;52.296;13.260;2023-05-13T09:34:06;6.65;;;3.83;;
19193;SDS011;9729;52.296;13.260;2023-05-13T09:36:33;7.17;;;4.03;;
19193;SDS011;9729;52.296;13.260;2023-05-13T09:39:01;6.97;;;3.23;;
19193;SDS011;9729;52.296;13.260;2023-05-13T09:41:27;6.63;;;3.50;;
19193;SDS011;9729;52.296;13.260;2023-05-13T09:43:56;8.20;;;4.28;;
19193;SDS011;9729;52.296;13.260;2023-05-13T09:46:22;9.77;;;3.93;;
19193;SDS011;9729;52.296;13.260;2023-05-13T09:48:50;7.68;;;4.10;;
19193;SDS011;9729;52.296;13.260;2023-05-13T09:51:23;6.90;;;3.43;;
19193;SDS011;9729;52.296;13.260;2023-05-13T09:53:51;6.07;;;3.30;;
19193;SDS011;9729;52.296;13.260;2023-05-13T09:56:19;8.20;;;4.43;;
19193;SDS011;9729;52.296;13.260;2023-05-13T09:58:49;6.73;;;4.57;;
19193;SDS011;9729;52.296;13.260;2023-05-13T10:01:16;7.57;;;3.73;;
19193;SDS011;9729;52.296;13.260;2023-05-13T10:03:42;8.17;;;4.17;;
19193;SDS011;9729;52.296;13.260;2023-05-13T10:06:09;10.00;;;4.00;;
19193;SDS011;9729;52.296;13.260;2023-05-13T10:08:36;6.80;;;2.80;;
19193;SDS011;9729;52.296;13.260;2023-05-13T10:11:04;7.00;;;3.27;;
19193;SDS011;9729;52.296;13.260;2023-05-13T10:13:32;5.70;;;3.13;;
19193;SDS011;9729;52.296;13.260;2023-05-13T10:15:59;4.50;;;2.90;;
19193;SDS011;9729;52.296;13.260;2023-05-13T10:18:25;8.33;;;3.47;;
19193;SDS011;9729;52.296;13.260;2023-05-13T10:20:52;6.50;;;3.27;;
19193;SDS011;9729;52.296;13.260;2023-05-13T10:23:20;5.80;;;2.73;;
19193;SDS011;9729;52.296;13.260;2023-05-13T10:25:49;5.20;;;2.87;;
19193;SDS011;9729;52.296;13.260;2023-05-13T10:28:15;8.40;;;3.27;;
19193;SDS011;9729;52.296;13.260;2023-05-13T10:30:43;2.77;;;2.50;;
19193;SDS011;9729;52.296;13.260;2023-05-13T10:33:10;4.83;;;3.07;;
19193;SDS011;9729;52.296;13.260;2023-05-13T10:35:37;5.33;;;2.93;;
19193;SDS011;9729;52.296;13.260;2023-05-13T10:38:06;5.53;;;2.73;;
19193;SDS011;9729;52.296;13.260;2023-05-13T10:40:47;12.27;;;3.20;;
19193;SDS011;9729;52.296;13.260;2023-05-13T10:43:20;6.33;;;3.00;;
19193;SDS011;9729;52.296;13.260;2023-05-13T10:45:50;4.27;;;2.77;;
19193;SDS011;9729;52.296;13.260;2023-05-13T10:48:21;3.87;;;2.57;;
19193;SDS011;9729;52.296;13.260;2023-05-13T10:50:51;8.90;;;2.63;;
19193;SDS011;9729;52.296;13.260;2023-05-13T10:53:19;5.80;;;2.53;;
19193;SDS011;9729;52.296;13.260;2023-05-13T10:55:49;3.07;;;2.43;;
19193;SDS011;9729;52.296;13.260;2023-05-13T10:58:17;3.70;;;2.73;;
19193;SDS011;9729;52.296;13.260;2023-05-13T11:00:46;4.13;;;2.50;;
19193;SDS011;9729;52.296;13.260;2023-05-13T11:03:25;3.77;;;2.47;;
19193;SDS011;9729;52.296;13.260;2023-05-13T11:06:00;6.67;;;3.03;;
19193;SDS011;9729;52.296;13.260;2023-05-13T11:08:40;5.87;;;2.90;;
19193;SDS011;9729;52.296;13.260;2023-05-13T11:14:04;5.93;;;2.60;;
19193;SDS011;9729;52.296;13.260;2023-05-13T11:16:32;3.07;;;2.70;;
19193;SDS011;9729;52.296;13.260;2023-05-13T11:19:01;4.87;;;3.20;;
19193;SDS011;9729;52.296;13.260;2023-05-13T11:21:29;3.37;;;2.93;;
19193;SDS011;9729;52.296;13.260;2023-05-13T11:23:56;5.67;;;3.07;;
19193;SDS011;9729;52.296;13.260;2023-05-13T11:26:24;5.17;;;2.77;;
19193;SDS011;9729;52.296;13.260;2023-05-13T11:29:02;7.90;;;3.73;;
19193;SDS011;9729;52.296;13.260;2023-05-13T11:31:40;4.70;;;2.90;;
19193;SDS011;9729;52.296;13.260;2023-05-13T11:34:10;7.47;;;2.90;;
19193;SDS011;9729;52.296;13.260;2023-05-13T11:36:38;5.70;;;3.37;;
19193;SDS011;9729;52.296;13.260;2023-05-13T11:39:06;4.13;;;2.93;;
19193;SDS011;9729;52.296;13.260;2023-05-13T11:41:35;5.47;;;2.90;;
19193;SDS011;9729;52.296;13.260;2023-05-13T11:44:01;11.50;;;2.73;;
19193;SDS011;9729;52.296;13.260;2023-05-13T11:46:30;6.17;;;2.73;;
19193;SDS011;9729;52.296;13.260;2023-05-13T11:48:56;4.03;;;2.87;;
19193;SDS011;9729;52.296;13.260;2023-05-13T11:51:25;7.50;;;2.63;;
19193;SDS011;9729;52.296;13.260;2023-05-13T11:53:58;3.47;;;2.77;;
19193;SDS011;9729;52.296;13.260;2023-05-13T11:56:25;10.03;;;3.00;;
19193;SDS011;9729;52.296;13.260;2023-05-13T11:58:52;7.10;;;2.90;;
19193;SDS011;9729;52.296;13.260;2023-05-13T12:01:18;5.43;;;3.00;;
19193;SDS011;9729;52.296;13.260;2023-05-13T12:03:45;3.53;;;2.63;;
19193;SDS011;9729;52.296;13.260;2023-05-13T12:06:11;5.10;;;2.80;;
19193;SDS011;9729;52.296;13.260;2023-05-13T12:08:43;3.27;;;2.50;;
19193;SDS011;9729;52.296;13.260;2023-05-13T12:11:09;6.60;;;2.47;;
19193;SDS011;9729;52.296;13.260;2023-05-13T12:13:37;4.27;;;3.07;;
19193;SDS011;9729;52.296;13.260;2023-05-13T12:16:04;10.00;;;2.80;;
19193;SDS011;9729;52.296;13.260;2023-05-13T12:18:31;8.20;;;2.80;;
19193;SDS011;9729;52.296;13.260;2023-05-13T12:20:58;6.97;;;2.50;;
19193;SDS011;9729;52.296;13.260;2023-05-13T12:23:24;5.93;;;2.90;;
19193;SDS011;9729;52.296;13.260;2023-05-13T12:25:53;5.87;;;2.87;;
19193;SDS011;9729;52.296;13.260;2023-05-13T12:28:20;8.20;;;2.57;;
19193;SDS011;9729;52.296;13.260;2023-05-13T12:30:48;6.43;;;2.60;;
19193;SDS011;9729;52.296;13.260;2023-05-13T12:33:16;3.07;;;2.20;;
19193;SDS011;9729;52.296;13.260;2023-05-13T12:35:47;9.83;;;2.90;;
19193;SDS011;9729;52.296;13.260;2023-05-13T12:38:15;8.13;;;3.03;;
19193;SDS011;9729;52.296;13.260;2023-05-13T12:40:42;5.30;;;3.10;;
19193;SDS011;9729;52.296;13.260;2023-05-13T12:43:10;5.20;;;2.93;;
19193;SDS011;9729;52.296;13.260;2023-05-13T12:45:39;6.77;;;2.60;;
19193;SDS011;9729;52.296;13.260;2023-05-13T12:48:07;6.20;;;2.80;;
19193;SDS011;9729;52.296;13.260;2023-05-13T12:50:34;3.83;;;2.80;;
19193;SDS011;9729;52.296;13.260;2023-05-13T12:53:01;5.00;;;3.30;;
19193;SDS011;9729;52.296;13.260;2023-05-13T12:55:27;5.67;;;2.83;;
19193;SDS011;9729;52.296;13.260;2023-05-13T12:57:54;8.97;;;2.87;;
19193;SDS011;9729;52.296;13.260;2023-05-13T13:00:22;6.00;;;2.70;;
19193;SDS011;9729;52.296;13.260;2023-05-13T13:02:49;4.07;;;2.87;;
19193;SDS011;9729;52.296;13.260;2023-05-13T13:05:17;6.17;;;2.77;;
19193;SDS011;9729;52.296;13.260;2023-05-13T13:07:43;3.97;;;2.77;;
19193;SDS011;9729;52.296;13.260;2023-05-13T13:10:11;5.30;;;2.77;;
19193;SDS011;9729;52.296;13.260;2023-05-13T13:12:44;6.60;;;2.53;;
19193;SDS011;9729;52.296;13.260;2023-05-13T13:15:13;4.93;;;3.23;;
19193;SDS011;9729;52.296;13.260;2023-05-13T13:17:41;5.17;;;3.33;;
19193;SDS011;9729;52.296;13.260;2023-05-13T13:20:07;5.97;;;4.00;;
19193;SDS011;9729;52.296;13.260;2023-05-13T13:22:34;8.47;;;2.67;;
19193;SDS011;9729;52.296;13.260;2023-05-13T13:25:01;7.57;;;3.20;;
19193;SDS011;9729;52.296;13.260;2023-05-13T13:27:28;4.30;;;2.93;;
19193;SDS011;9729;52.296;13.260;2023-05-13T13:29:54;5.87;;;3.00;;
19193;SDS011;9729;52.296;13.260;2023-05-13T13:32:20;8.00;;;3.47;;
19193;SDS011;9729;52.296;13.260;2023-05-13T13:34:49;3.73;;;2.87;;
19193;SDS011;9729;52.296;13.260;2023-05-13T13:37:15;6.47;;;3.43;;
19193;SDS011;9729;52.296;13.260;2023-05-13T13:39:42;7.17;;;2.90;;
19193;SDS011;9729;52.296;13.260;2023-05-13T13:42:08;8.30;;;3.37;;
19193;SDS011;9729;52.296;13.260;2023-05-13T13:44:34;5.43;;;3.33;;
19193;SDS011;9729;52.296;13.260;2023-05-13T13:47:03;3.70;;;2.93;;
19193;SDS011;9729;52.296;13.260;2023-05-13T13:49:29;8.13;;;3.40;;
19193;SDS011;9729;52.296;13.260;2023-05-13T13:51:57;6.27;;;2.87;;
19193;SDS011;9729;52.296;13.260;2023-05-13T13:54:24;6.33;;;2.80;;
19193;SDS011;9729;52.296;13.260;2023-05-13T13:56:50;5.57;;;2.83;;
19193;SDS011;9729;52.296;13.260;2023-05-13T13:59:16;3.23;;;2.87;;
19193;SDS011;9729;52.296;13.260;2023-05-13T14:01:43;6.67;;;2.80;;
19193;SDS011;9729;52.296;13.260;2023-05-13T14:04:11;5.93;;;3.13;;
19193;SDS011;9729;52.296;13.260;2023-05-13T14:06:38;3.63;;;2.70;;
19193;SDS011;9729;52.296;13.260;2023-05-13T14:09:06;4.20;;;2.93;;
19193;SDS011;9729;52.296;13.260;2023-05-13T14:11:32;4.67;;;2.57;;
19193;SDS011;9729;52.296;13.260;2023-05-13T14:13:59;5.90;;;3.43;;
19193;SDS011;9729;52.296;13.260;2023-05-13T14:16:25;8.37;;;3.00;;
19193;SDS011;9729;52.296;13.260;2023-05-13T14:18:51;4.47;;;2.90;;
19193;SDS011;9729;52.296;13.260;2023-05-13T14:21:18;4.33;;;3.43;;
19193;SDS011;9729;52.296;13.260;2023-05-13T14:23:44;8.40;;;2.63;;
19193;SDS011;9729;52.296;13.260;2023-05-13T14:26:12;9.47;;;3.17;;
19193;SDS011;9729;52.296;13.260;2023-05-13T14:28:39;5.30;;;3.00;;
19193;SDS011;9729;52.296;13.260;2023-05-13T14:31:06;4.30;;;3.10;;
19193;SDS011;9729;52.296;13.260;2023-05-13T14:33:32;3.83;;;3.13;;
19193;SDS011;9729;52.296;13.260;2023-05-13T14:35:58;3.87;;;2.73;;
19193;SDS011;9729;52.296;13.260;2023-05-13T14:38:25;4.87;;;3.60;;
19193;SDS011;9729;52.296;13.260;2023-05-13T14:40:52;3.10;;;2.80;;
19193;SDS011;9729;52.296;13.260;2023-05-13T14:43:20;4.83;;;2.73;;
19193;SDS011;9729;52.296;13.260;2023-05-13T14:45:47;4.43;;;3.20;;